Time;durP1;ratioP1;P1;durP2;ratioP2;P2;SDS_P1;SDS_P2;PMS_P1;PMS_P2;Temp;Humidity;BMP_temperature;BMP_pressure;BME280_temperature;BME280_humidity;BME280_pressure;Samples;Min_cycle;Max_cycle;Signal;HPM_P1;HPM_P2
2022/07/30 00:01:12;;;;;;;;;11.00;11.00;;;;;24.22;42.76;101069.59;4968035;28;45383;-85
2022/07/30 00:03:38;;;;;;;;;9.33;9.33;;;;;24.26;43.19;101083.91;4968742;28;45414;-85
2022/07/30 00:06:04;;;;;;;;;9.00;9.00;;;;;24.23;42.41;101086.75;4969256;28;45437;-85
2022/07/30 00:08:29;;;;;;;;;13.67;11.00;;;;;24.20;42.86;101084.16;4969289;28;45554;-85
2022/07/30 00:10:55;;;;;;;;;10.00;10.00;;;;;24.15;42.69;101071.63;4968472;28;45308;-85
2022/07/30 00:13:24;;;;;;;;;8.67;8.67;;;;;24.14;42.81;101075.28;4966132;28;45535;-85
2022/07/30 00:15:49;;;;;;;;;8.33;7.00;;;;;24.09;42.37;101077.28;4968069;28;44796;-84
2022/07/30 00:18:14;;;;;;;;;6.67;6.67;;;;;24.07;41.81;101071.00;4965456;28;46711;-84
2022/07/30 00:20:40;;;;;;;;;8.33;8.33;;;;;24.07;42.55;101062.88;4948503;28;45373;-85
2022/07/30 00:23:06;;;;;;;;;6.00;6.00;;;;;24.07;41.53;101062.88;4967754;28;45365;-85
2022/07/30 00:25:34;;;;;;;;;9.33;8.00;;;;;24.08;41.54;101052.91;4968547;28;45749;-85
2022/07/30 00:28:00;;;;;;;;;8.33;8.33;;;;;24.16;41.58;101073.41;4970449;28;45066;-85
2022/07/30 00:30:25;;;;;;;;;7.00;7.00;;;;;24.08;42.25;101053.78;4970778;28;45523;-85
2022/07/30 00:32:51;;;;;;;;;6.00;6.00;;;;;24.20;41.17;101070.56;4969012;28;45454;-85
2022/07/30 00:35:16;;;;;;;;;5.33;5.33;;;;;24.21;40.00;101075.06;4969972;28;45522;-85
2022/07/30 00:37:42;;;;;;;;;5.00;5.00;;;;;24.24;39.97;101077.66;4970819;28;45352;-85
2022/07/30 00:40:09;;;;;;;;;7.00;5.67;;;;;24.20;40.25;101074.19;4971251;28;45518;-85
2022/07/30 00:42:43;;;;;;;;;5.67;5.33;;;;;24.21;39.71;101078.66;4971874;28;44834;-83
2022/07/30 00:45:11;;;;;;;;;5.00;4.00;;;;;24.13;39.81;101057.19;4972007;28;45453;-85
2022/07/30 00:47:38;;;;;;;;;6.33;6.33;;;;;24.21;39.62;101072.34;4971526;28;45463;-85
2022/07/30 00:50:06;;;;;;;;;5.67;5.67;;;;;24.16;40.08;101067.09;4969455;28;45397;-85
2022/07/30 00:52:37;;;;;;;;;5.00;4.67;;;;;24.13;39.94;101069.91;4971325;28;45472;-83
2022/07/30 00:55:07;;;;;;;;;5.00;5.00;;;;;24.07;40.07;101056.56;4968545;28;45431;-84
2022/07/30 00:57:36;;;;;;;;;6.67;5.00;;;;;24.08;40.50;101056.50;4969122;28;47051;-84
2022/07/30 01:00:07;;;;;;;;;4.00;4.00;;;;;24.05;41.16;101062.03;4970536;28;45503;-85
2022/07/30 01:02:33;;;;;;;;;7.00;7.00;;;;;23.96;41.27;101060.56;4968892;28;45352;-85
2022/07/30 01:04:58;;;;;;;;;5.33;5.33;;;;;23.84;41.86;101043.81;4972056;28;44909;-85
2022/07/30 01:07:24;;;;;;;;;5.00;5.00;;;;;23.84;41.84;101062.84;4970801;28;47190;-85
2022/07/30 01:09:49;;;;;;;;;8.33;7.00;;;;;23.82;42.44;101060.16;4969501;28;45561;-84
2022/07/30 01:12:18;;;;;;;;;5.67;5.67;;;;;23.81;42.96;101066.53;4970001;28;44750;-85
2022/07/30 01:14:44;;;;;;;;;6.67;6.67;;;;;23.74;43.38;101059.53;4970412;28;45186;-85
2022/07/30 01:17:09;;;;;;;;;7.00;7.00;;;;;23.70;42.86;101066.00;4969485;28;45235;-83
2022/07/30 01:19:49;;;;;;;;;6.00;6.00;;;;;23.69;43.96;101059.69;4969289;28;45580;-84
2022/07/30 01:22:32;;;;;;;;;7.33;6.00;;;;;23.66;44.09;101058.91;4954325;28;45474;-84
2022/07/30 01:25:23;;;;;;;;;6.67;6.33;;;;;23.61;43.33;101059.06;4949860;28;45540;-84
2022/07/30 01:27:57;;;;;;;;;5.33;5.33;;;;;23.59;43.83;101055.50;4950474;28;45451;-85
2022/07/30 01:30:26;;;;;;;;;8.00;8.00;;;;;23.54;44.10;101054.78;4951457;28;45456;-85
2022/07/30 01:32:53;;;;;;;;;7.67;7.67;;;;;23.47;44.25;101054.13;4969255;28;45465;-83
2022/07/30 01:35:22;;;;;;;;;7.00;7.00;;;;;23.43;44.17;101051.56;4970081;28;45691;-84
2022/07/30 01:37:48;;;;;;;;;7.00;6.00;;;;;23.38;44.75;101056.28;4970243;28;45429;-83
2022/07/30 01:40:14;;;;;;;;;7.00;7.00;;;;;23.34;44.35;101055.47;4970431;28;44771;-84
2022/07/30 01:42:41;;;;;;;;;5.67;5.67;;;;;23.35;43.78;101062.69;4969362;28;45508;-84
2022/07/30 01:45:09;;;;;;;;;7.67;7.33;;;;;23.33;43.86;101060.03;4970603;28;45537;-85
2022/07/30 01:47:38;;;;;;;;;7.00;7.00;;;;;23.36;44.14;101059.91;4969704;28;45364;-84
2022/07/30 01:50:07;;;;;;;;;9.33;7.67;;;;;23.40;44.56;101054.38;4968443;28;45461;-84
2022/07/30 01:52:35;;;;;;;;;7.00;5.00;;;;;23.41;43.80;101053.44;4967816;28;45448;-84
2022/07/30 01:55:02;;;;;;;;;7.00;6.67;;;;;23.34;44.73;101045.50;4968639;28;45402;-85
2022/07/30 01:57:30;;;;;;;;;5.67;5.67;;;;;23.32;44.66;101051.94;4969656;28;48133;-84
2022/07/30 02:00:00;;;;;;;;;7.33;7.33;;;;;23.28;44.34;101064.72;4969571;28;45538;-84
2022/07/30 02:02:26;;;;;;;;;9.67;9.33;;;;;23.22;44.10;101051.34;4969866;28;45435;-84
2022/07/30 02:04:52;;;;;;;;;7.33;7.33;;;;;23.21;44.51;101046.88;4968083;28;45516;-84
2022/07/30 02:07:35;;;;;;;;;8.67;8.67;;;;;23.17;45.03;101047.91;4968045;28;46970;-84
2022/07/30 02:10:10;;;;;;;;;7.00;7.00;;;;;23.14;45.24;101061.56;4968022;28;46186;-84
2022/07/30 02:12:41;;;;;;;;;10.00;8.67;;;;;23.09;44.38;101061.72;4968825;28;44767;-85
2022/07/30 02:16:01;;;;;;;;;9.33;7.00;;;;;23.05;45.08;101060.06;4969342;28;44848;-85
2022/07/30 02:18:41;;;;;;;;;10.00;7.67;;;;;23.00;45.61;101052.97;4927729;28;46926;-85
2022/07/30 02:21:11;;;;;;;;;8.33;8.33;;;;;23.01;44.81;101057.47;4912474;28;45329;-85
2022/07/30 02:23:43;;;;;;;;;6.00;6.00;;;;;22.95;45.21;101045.88;4948077;28;44732;-85
2022/07/30 02:26:14;;;;;;;;;9.33;9.33;;;;;22.95;45.94;101043.16;4932562;28;45596;-86
2022/07/30 02:28:44;;;;;;;;;12.00;12.00;;;;;22.94;46.78;101051.34;4947525;28;45083;-86
2022/07/30 02:31:12;;;;;;;;;11.00;10.33;;;;;22.94;46.80;101052.22;4948419;28;45484;-85
2022/07/30 02:33:40;;;;;;;;;10.33;10.33;;;;;22.90;46.77;101041.53;4947491;28;45457;-85
2022/07/30 02:36:08;;;;;;;;;9.00;9.00;;;;;22.89;46.99;101048.78;4947841;28;45421;-85
2022/07/30 02:38:36;;;;;;;;;7.67;7.67;;;;;22.88;47.03;101051.53;4947317;28;47395;-84
2022/07/30 02:41:03;;;;;;;;;8.33;8.33;;;;;22.82;46.47;101047.19;4948017;28;45464;-86
2022/07/30 02:43:31;;;;;;;;;7.67;7.67;;;;;22.80;46.98;101042.75;4931235;28;44805;-84
2022/07/30 02:45:59;;;;;;;;;7.00;7.00;;;;;22.75;46.43;101042.91;4930675;28;45045;-84
2022/07/30 02:48:26;;;;;;;;;9.67;9.67;;;;;22.69;47.35;101032.25;4931214;28;47315;-83
2022/07/30 02:50:54;;;;;;;;;7.67;7.67;;;;;22.63;47.57;101033.34;4931042;28;45442;-84
2022/07/30 02:53:22;;;;;;;;;11.00;11.00;;;;;22.66;47.75;101037.78;4969796;28;45474;-84
2022/07/30 02:55:52;;;;;;;;;8.00;8.00;;;;;22.59;47.39;101033.50;4988460;28;45542;-84
2022/07/30 02:58:22;;;;;;;;;9.00;9.00;;;;;22.57;47.46;101047.09;4971259;28;47016;-85
2022/07/30 03:00:50;;;;;;;;;9.00;8.00;;;;;22.49;46.90;101050.03;4987972;28;45455;-84
2022/07/30 03:03:16;;;;;;;;;8.33;7.00;;;;;22.45;47.15;101042.91;4969848;28;45528;-85
2022/07/30 03:05:43;;;;;;;;;6.67;6.67;;;;;22.47;47.98;101053.72;4987448;28;45327;-84
2022/07/30 03:08:09;;;;;;;;;9.00;9.00;;;;;22.42;47.80;101047.53;4987987;28;45288;-84
2022/07/30 03:10:38;;;;;;;;;6.00;4.67;;;;;22.39;47.06;101051.25;4970641;28;44845;-83
2022/07/30 03:13:06;;;;;;;;;6.67;6.67;;;;;22.36;47.16;101051.34;4970068;28;44834;-86
2022/07/30 03:15:36;;;;;;;;;8.67;7.67;;;;;22.34;47.09;101054.09;4966860;28;45377;-84
2022/07/30 03:18:04;;;;;;;;;6.67;6.67;;;;;22.32;46.93;101047.84;4969190;28;47939;-85
2022/07/30 03:20:33;;;;;;;;;7.00;7.00;;;;;22.33;47.06;101048.72;4969612;28;45505;-84
2022/07/30 03:23:01;;;;;;;;;9.00;7.33;;;;;22.30;46.98;101048.78;4970988;28;45437;-84
2022/07/30 03:25:28;;;;;;;;;6.00;6.00;;;;;22.26;46.70;101044.41;4969356;28;45478;-85
2022/07/30 03:27:58;;;;;;;;;6.00;6.00;;;;;22.29;46.79;101047.03;4965901;28;47231;-84
2022/07/30 03:30:24;;;;;;;;;6.67;6.67;;;;;22.24;47.00;101038.13;4965028;28;45423;-84
2022/07/30 03:32:52;;;;;;;;;6.00;6.00;;;;;22.29;47.20;101041.63;4968117;28;45363;-85
2022/07/30 03:35:20;;;;;;;;;10.00;8.00;;;;;22.27;47.67;101047.06;4967621;28;45341;-84
2022/07/30 03:37:47;;;;;;;;;8.00;7.67;;;;;22.29;47.55;101047.03;4963185;28;47214;-86
2022/07/30 03:40:13;;;;;;;;;9.00;9.00;;;;;22.23;47.94;101039.94;4949446;28;45342;-83
2022/07/30 03:42:39;;;;;;;;;11.00;11.00;;;;;22.18;47.62;101037.38;4948599;28;45454;-84
2022/07/30 03:45:07;;;;;;;;;8.00;7.33;;;;;22.16;47.93;101032.94;4948066;28;45406;-84
2022/07/30 03:47:37;;;;;;;;;7.00;7.00;;;;;22.16;48.43;101041.94;4948401;28;46784;-84
2022/07/30 03:50:02;;;;;;;;;10.33;9.00;;;;;22.15;49.17;101045.56;4948831;28;45457;-84
2022/07/30 03:52:33;;;;;;;;;7.67;7.67;;;;;22.04;49.67;101034.19;4949629;28;45444;-84
2022/07/30 03:55:01;;;;;;;;;10.33;10.33;;;;;22.09;49.49;101050.28;4947109;28;45599;-84
2022/07/30 03:57:27;;;;;;;;;8.00;8.00;;;;;22.05;49.79;101054.00;4946830;28;46355;-85
2022/07/30 03:59:52;;;;;;;;;8.67;8.67;;;;;21.98;49.65;101050.59;4946024;28;45487;-86
2022/07/30 04:02:18;;;;;;;;;11.00;10.00;;;;;21.95;50.23;101047.97;4946264;28;45375;-85
2022/07/30 04:04:44;;;;;;;;;11.00;9.33;;;;;21.92;50.34;101053.50;4947307;28;45301;-84
2022/07/30 04:07:11;;;;;;;;;10.00;9.00;;;;;21.90;50.63;101055.34;4946296;28;46743;-84
2022/07/30 04:09:36;;;;;;;;;7.67;7.67;;;;;21.88;50.65;101055.38;4947103;28;45402;-84
2022/07/30 04:12:05;;;;;;;;;7.00;7.00;;;;;21.91;50.73;101062.53;4945861;28;44836;-84
2022/07/30 04:14:43;;;;;;;;;13.33;13.33;;;;;21.82;50.77;101046.56;4946026;28;45714;-84
2022/07/30 04:17:20;;;;;;;;;11.33;10.33;;;;;21.83;50.91;101048.31;4945921;28;46840;-84
2022/07/30 04:23:09;;;;;;;;;9.67;8.33;;;;;21.78;51.71;101060.16;4948704;28;45515;-84
2022/07/30 04:25:35;;;;;;;;;9.00;9.00;;;;;21.74;51.89;101055.75;4946992;28;45644;-85
2022/07/30 04:28:02;;;;;;;;;12.00;9.67;;;;;21.71;51.64;101071.19;4948153;28;45452;-84
2022/07/30 04:30:27;;;;;;;;;13.00;11.00;;;;;21.70;51.99;101075.72;4946878;28;45384;-84
2022/07/30 04:32:54;;;;;;;;;10.33;9.00;;;;;21.70;52.19;101073.00;4946136;28;45512;-84
2022/07/30 04:35:28;;;;;;;;;8.00;8.00;;;;;21.63;52.49;101065.97;4945138;28;45334;-84
2022/07/30 04:37:53;;;;;;;;;7.67;7.67;;;;;21.59;52.79;101066.97;4944996;28;46820;-85
2022/07/30 04:40:19;;;;;;;;;9.00;9.00;;;;;21.63;53.05;101079.50;4945942;28;45400;-85
2022/07/30 04:42:44;;;;;;;;;10.00;8.33;;;;;21.58;53.21;101070.63;4945622;28;45866;-82
2022/07/30 04:48:31;;;;;;;;;12.33;11.67;;;;;21.54;53.57;101058.13;4947556;28;45469;-84
2022/07/30 04:51:01;;;;;;;;;10.33;9.00;;;;;21.55;53.71;101065.28;4947571;28;44824;-84
2022/07/30 04:53:28;;;;;;;;;8.00;8.00;;;;;21.60;53.65;101071.50;4946895;28;45708;-84
2022/07/30 04:55:55;;;;;;;;;10.00;9.00;;;;;21.58;53.64;101065.22;4945310;28;45340;-84
2022/07/30 04:58:22;;;;;;;;;8.00;8.00;;;;;21.50;53.76;101053.72;4947079;28;45544;-85
2022/07/30 05:00:51;;;;;;;;;8.00;5.67;;;;;21.61;53.75;101075.06;4946086;28;45401;-85
2022/07/30 05:03:17;;;;;;;;;12.00;12.00;;;;;21.66;53.82;101074.03;4944294;28;44938;-85
2022/07/30 05:05:44;;;;;;;;;12.00;11.00;;;;;21.71;53.75;101074.81;4945196;28;45163;-84
2022/07/30 05:08:11;;;;;;;;;10.00;9.67;;;;;21.76;53.58;101059.31;4946020;28;45604;-85
2022/07/30 05:10:37;;;;;;;;;7.67;7.67;;;;;21.87;53.36;101077.97;4949787;28;45401;-84
2022/07/30 05:13:02;;;;;;;;;9.33;9.00;;;;;21.97;52.85;101078.59;4949550;28;45587;-86
2022/07/30 05:15:28;;;;;;;;;9.33;9.33;;;;;22.03;52.84;101086.56;4950025;28;44927;-85
2022/07/30 05:17:54;;;;;;;;;9.00;8.00;;;;;22.08;52.70;101076.50;4958957;28;48056;-85
2022/07/30 05:20:20;;;;;;;;;7.67;7.67;;;;;22.17;52.12;101076.22;4969766;28;45302;-85
2022/07/30 05:22:45;;;;;;;;;11.33;9.67;;;;;22.30;52.22;101082.22;4969595;28;45354;-83
2022/07/30 05:25:10;;;;;;;;;8.67;8.67;;;;;22.34;51.59;101083.91;4985729;28;45357;-84
2022/07/30 05:27:36;;;;;;;;;8.33;8.33;;;;;22.41;51.74;101090.03;4970726;28;45286;-83
2022/07/30 05:30:01;;;;;;;;;10.00;8.00;;;;;22.49;51.43;101087.97;4968306;28;45413;-85
2022/07/30 05:32:27;;;;;;;;;12.00;9.00;;;;;22.55;51.45;101093.22;4968443;28;45391;-84
2022/07/30 05:34:52;;;;;;;;;8.00;8.00;;;;;22.56;51.53;101078.72;4968229;28;45342;-84
2022/07/30 05:37:18;;;;;;;;;11.00;11.00;;;;;22.72;50.98;101095.44;4968717;28;45420;-84
2022/07/30 05:39:43;;;;;;;;;7.67;7.67;;;;;22.76;51.19;101091.69;4968275;28;44933;-84
2022/07/30 05:42:08;;;;;;;;;9.00;9.00;;;;;22.83;50.72;101081.53;4967558;28;45382;-84
2022/07/30 05:44:37;;;;;;;;;10.00;9.00;;;;;23.02;50.55;101094.53;4968085;28;45391;-85
2022/07/30 05:47:05;;;;;;;;;10.00;8.33;;;;;23.10;50.81;101092.44;4968612;28;47206;-85
2022/07/30 05:49:31;;;;;;;;;9.67;9.67;;;;;23.22;50.08;101097.47;4970413;28;44772;-85
2022/07/30 05:55:52;;;;;;;;;9.33;9.33;;;;;23.35;49.09;101096.16;4970961;28;45443;-83
2022/07/30 05:58:18;;;;;;;;;9.00;9.00;;;;;23.38;48.73;101077.97;4972026;28;45634;-84
2022/07/30 06:00:47;;;;;;;;;9.00;9.00;;;;;23.45;49.27;101095.81;4969469;28;44839;-84
2022/07/30 06:03:13;;;;;;;;;9.33;9.00;;;;;23.55;48.73;101089.13;4969675;28;45484;-84
2022/07/30 06:05:38;;;;;;;;;7.33;7.00;;;;;23.71;48.57;101103.06;4970537;28;45627;-83
2022/07/30 06:08:04;;;;;;;;;6.67;5.67;;;;;23.79;48.49;101101.00;4970723;28;45152;-85
2022/07/30 06:10:30;;;;;;;;;8.67;8.33;;;;;23.86;48.17;101108.00;4969095;28;45405;-84
2022/07/30 06:12:56;;;;;;;;;8.33;7.33;;;;;23.93;47.96;101097.81;4969213;28;45401;-85
2022/07/30 06:15:21;;;;;;;;;10.67;10.33;;;;;23.91;47.75;101081.56;4971577;28;45373;-85
2022/07/30 06:17:47;;;;;;;;;11.00;9.67;;;;;24.08;47.00;101105.41;4968840;28;47536;-86
2022/07/30 06:20:14;;;;;;;;;8.33;8.33;;;;;24.08;47.15;101108.13;4968786;28;45429;-85
2022/07/30 06:22:40;;;;;;;;;9.33;9.33;;;;;24.14;47.34;101107.03;4969470;28;44860;-84
2022/07/30 06:25:08;;;;;;;;;9.00;9.00;;;;;24.23;46.64;101103.94;4971479;28;45333;-85
2022/07/30 06:27:33;;;;;;;;;13.33;10.00;;;;;24.25;46.28;101114.78;4970013;28;46311;-84
2022/07/30 06:30:10;;;;;;;;;11.00;9.67;;;;;24.06;46.76;101087.41;4969178;28;45561;-85
2022/07/30 06:32:44;;;;;;;;;12.00;10.67;;;;;24.23;46.42;101113.94;4969313;28;44748;-84
2022/07/30 06:35:10;;;;;;;;;9.33;9.00;;;;;24.34;46.30;101130.75;4968253;28;45416;-84
2022/07/30 06:37:35;;;;;;;;;9.67;9.67;;;;;24.35;46.24;101127.06;4968973;28;46897;-84
2022/07/30 06:40:01;;;;;;;;;12.00;12.00;;;;;24.41;46.31;101137.72;4968013;28;45365;-86
2022/07/30 06:42:27;;;;;;;;;12.00;9.33;;;;;24.44;45.36;101139.44;4967188;28;45601;-86
2022/07/30 06:44:52;;;;;;;;;9.00;9.00;;;;;24.37;45.20;101127.91;4970135;28;45401;-84
2022/07/30 06:47:28;;;;;;;;;8.67;8.67;;;;;24.54;45.69;101147.25;4969054;28;45119;-84
2022/07/30 06:49:54;;;;;;;;;10.67;10.00;;;;;24.72;44.85;101136.59;4970057;28;45346;-84
2022/07/30 06:52:20;;;;;;;;;9.67;9.67;;;;;24.81;44.58;101133.53;4969828;28;45418;-85
2022/07/30 06:54:47;;;;;;;;;9.00;9.00;;;;;24.96;43.77;101134.75;4970988;28;44787;-84
2022/07/30 06:57:13;;;;;;;;;9.00;8.33;;;;;25.08;43.44;101131.53;4971669;28;45994;-84
2022/07/30 06:59:38;;;;;;;;;8.33;7.67;;;;;25.07;43.35;101131.63;4968391;28;45521;-85
2022/07/30 07:02:04;;;;;;;;;10.00;10.00;;;;;25.07;43.14;101126.16;4969805;28;44912;-85
2022/07/30 07:04:31;;;;;;;;;9.00;8.50;;;;;25.11;43.18;101141.44;4969752;28;45821;-85
2022/07/30 07:07:02;;;;;;;;;8.67;7.00;;;;;25.22;43.18;101141.91;4969552;28;45831;-85
2022/07/30 07:12:25;;;;;;;;;7.67;7.67;;;;;25.31;42.61;101116.16;4967044;28;45418;-85
2022/07/30 07:14:50;;;;;;;;;9.33;8.33;;;;;25.52;42.40;101127.97;4968357;28;45378;-84
2022/07/30 07:17:16;;;;;;;;;8.00;8.00;;;;;25.86;41.92;101153.78;4967117;28;45573;-84
2022/07/30 07:19:51;;;;;;;;;8.33;8.00;;;;;25.92;41.72;101143.53;4969787;28;44921;-84
2022/07/30 07:22:23;;;;;;;;;7.00;7.00;;;;;26.13;41.06;101158.03;4968976;28;45261;-87
2022/07/30 07:24:48;;;;;;;;;8.67;8.67;;;;;26.19;41.38;101153.28;4969315;28;45473;-87
2022/07/30 07:27:14;;;;;;;;;7.33;7.00;;;;;26.18;41.30;101133.31;4957165;28;47095;-85
2022/07/30 07:29:40;;;;;;;;;8.67;8.67;;;;;26.39;40.61;101136.03;4949630;28;44804;-84
2022/07/30 07:32:05;;;;;;;;;6.67;6.67;;;;;26.39;39.96;101147.81;4949257;28;44792;-84
2022/07/30 07:34:31;;;;;;;;;9.00;9.00;;;;;26.28;40.39;101150.16;4949144;28;45331;-84
2022/07/30 07:37:03;;;;;;;;;10.33;8.00;;;;;26.25;40.41;101142.09;4950689;28;46059;-86
2022/07/30 07:39:28;;;;;;;;;9.33;9.33;;;;;26.22;40.03;101145.84;4951001;28;44798;-84
2022/07/30 07:41:54;;;;;;;;;7.00;7.00;;;;;26.27;40.27;101149.25;4949769;28;45658;-85
2022/07/30 07:44:20;;;;;;;;;9.00;8.00;;;;;26.25;40.40;101145.69;4950415;28;45317;-84
2022/07/30 07:46:45;;;;;;;;;8.67;8.67;;;;;26.23;40.54;101133.97;4950540;28;46751;-84
2022/07/30 07:49:10;;;;;;;;;9.67;8.00;;;;;26.31;40.59;101139.97;4949352;28;45757;-85
2022/07/30 07:51:36;;;;;;;;;7.33;7.33;;;;;26.39;40.12;101139.63;4949327;28;44842;-85
2022/07/30 07:54:02;;;;;;;;;8.33;8.33;;;;;26.44;39.97;101139.41;4949566;28;45341;-85
2022/07/30 07:56:27;;;;;;;;;8.00;8.00;;;;;26.64;39.89;101142.16;4948088;28;46639;-84
2022/07/30 07:58:53;;;;;;;;;8.67;7.67;;;;;26.71;39.26;101149.06;4950427;28;45326;-85
2022/07/30 08:01:20;;;;;;;;;9.67;9.00;;;;;26.78;39.54;101136.03;4950026;28;44993;-85
2022/07/30 08:03:46;;;;;;;;;7.33;7.33;;;;;26.92;38.76;101141.75;4948017;28;45524;-86
2022/07/30 08:06:12;;;;;;;;;10.33;9.33;;;;;27.01;38.85;101136.78;4946966;28;46848;-85
2022/07/30 08:08:37;;;;;;;;;8.00;8.00;;;;;26.95;38.82;101107.94;4950227;28;45457;-85
2022/07/30 08:11:04;;;;;;;;;7.67;7.67;;;;;27.32;38.64;101138.94;4948306;28;45403;-85
2022/07/30 08:13:30;;;;;;;;;7.33;7.33;;;;;27.54;37.87;101145.06;4947849;28;44899;-84
2022/07/30 08:15:55;;;;;;;;;7.67;7.67;;;;;27.46;37.81;101121.84;4947992;28;45816;-84
2022/07/30 08:18:22;;;;;;;;;5.33;5.33;;;;;27.57;37.65;101144.06;4948686;28;45433;-85
2022/07/30 08:20:48;;;;;;;;;7.33;7.33;;;;;27.65;37.83;101130.88;4950657;28;45307;-85
2022/07/30 08:23:21;;;;;;;;;8.33;8.33;;;;;27.72;37.94;101136.91;4949352;28;45398;-84
2022/07/30 08:25:47;;;;;;;;;8.33;8.00;;;;;27.77;36.26;101142.13;4949852;28;45503;-85
2022/07/30 08:28:12;;;;;;;;;6.00;5.33;;;;;27.58;36.58;101151.28;4948559;28;45466;-84
2022/07/30 08:30:38;;;;;;;;;5.33;5.33;;;;;27.36;36.42;101139.66;4948609;28;45339;-84
2022/07/30 08:33:04;;;;;;;;;5.33;5.33;;;;;27.24;36.71;101147.50;4948965;28;44878;-85
2022/07/30 08:35:29;;;;;;;;;6.33;5.00;;;;;27.08;37.21;101157.34;4949372;28;45433;-85
2022/07/30 08:37:55;;;;;;;;;4.33;4.33;;;;;26.92;37.08;101149.00;4948935;28;45163;-85
2022/07/30 08:40:25;;;;;;;;;7.67;7.67;;;;;26.96;37.52;101157.94;4949384;28;45425;-86
2022/07/30 08:42:52;;;;;;;;;7.00;6.67;;;;;26.99;37.29;101160.56;4948451;28;45401;-85
2022/07/30 08:45:18;;;;;;;;;6.00;6.00;;;;;27.14;37.96;101159.78;4951966;28;45303;-85
2022/07/30 08:47:46;;;;;;;;;6.33;5.33;;;;;27.32;37.04;101150.72;4953898;28;45312;-84
2022/07/30 08:50:11;;;;;;;;;4.67;4.67;;;;;27.47;36.34;101150.91;4953382;28;44863;-84
2022/07/30 08:52:37;;;;;;;;;5.67;5.67;;;;;27.39;37.01;101145.88;4952151;28;45305;-85
2022/07/30 08:55:04;;;;;;;;;7.67;6.33;;;;;27.34;36.77;101147.94;4952246;28;47041;-86
2022/07/30 08:57:32;;;;;;;;;7.00;5.33;;;;;27.40;36.30;101149.47;4953142;28;44872;-86
2022/07/30 08:59:58;;;;;;;;;4.67;4.67;;;;;27.41;35.91;101151.22;4951013;28;45405;-85
2022/07/30 09:02:30;;;;;;;;;5.00;5.00;;;;;27.43;35.69;101152.03;4952182;28;45323;-85
2022/07/30 09:04:58;;;;;;;;;8.00;6.00;;;;;27.56;36.16;101142.28;4950819;28;47040;-85
2022/07/30 09:07:25;;;;;;;;;3.67;2.33;;;;;27.66;35.37;101138.09;4951469;28;45394;-85
2022/07/30 09:09:50;;;;;;;;;2.00;1.00;;;;;27.72;35.49;101137.78;4951638;28;45434;-85
2022/07/30 09:19:15;;;;;;;;;5.33;5.33;;;;;28.37;34.17;101150.84;4971299;28;44801;-85
2022/07/30 09:21:41;;;;;;;;;5.00;5.00;;;;;28.35;34.77;101150.03;4970035;28;45517;-85
2022/07/30 09:24:09;;;;;;;;;5.33;5.33;;;;;28.47;34.90;101157.56;4972086;28;45607;-85
2022/07/30 09:26:57;;;;;;;;;4.33;4.33;;;;;28.37;34.40;101161.78;4972848;28;47328;-85
2022/07/30 09:29:58;;;;;;;;;4.33;4.33;;;;;28.20;34.11;101153.56;4971363;28;45357;-85
2022/07/30 09:32:24;;;;;;;;;6.00;5.67;;;;;28.08;34.06;101168.81;4972304;28;45254;-86
2022/07/30 09:34:49;;;;;;;;;5.33;5.33;;;;;28.03;33.76;101160.81;4973270;28;45428;-86
2022/07/30 09:37:18;;;;;;;;;6.67;6.67;;;;;28.05;34.04;101167.09;4970644;28;47167;-86
2022/07/30 09:39:44;;;;;;;;;4.33;4.33;;;;;28.03;33.82;101149.00;4970072;28;45342;-85
2022/07/30 09:42:22;;;;;;;;;4.33;4.33;;;;;28.10;33.95;101165.03;4970027;28;45330;-85
2022/07/30 09:44:48;;;;;;;;;4.33;4.33;;;;;28.16;33.46;101169.28;4969881;28;45541;-85
2022/07/30 09:47:35;;;;;;;;;5.67;5.67;;;;;28.25;34.39;101165.16;4972524;28;45849;-84
2022/07/30 09:50:14;;;;;;;;;2.00;2.00;;;;;28.31;33.89;101167.59;4971337;28;44924;-85
2022/07/30 09:52:43;;;;;;;;;5.33;5.33;;;;;28.30;33.62;101168.56;4970804;28;45436;-84
2022/07/30 09:55:10;;;;;;;;;5.00;4.00;;;;;28.31;33.74;101167.59;4972226;28;45413;-85
2022/07/30 09:57:52;;;;;;;;;3.00;3.00;;;;;28.38;33.85;101171.78;4971635;28;45542;-85
2022/07/30 10:00:20;;;;;;;;;4.33;4.33;;;;;28.39;32.89;101161.69;4970719;28;45437;-85
2022/07/30 10:02:46;;;;;;;;;3.00;3.00;;;;;28.29;32.92;101143.03;4953361;28;45494;-85
2022/07/30 10:05:16;;;;;;;;;3.00;3.00;;;;;28.46;32.70;101172.25;4971103;28;45165;-84
2022/07/30 10:08:02;;;;;;;;;3.67;3.67;;;;;28.55;32.55;101167.25;4971982;28;46381;-84
2022/07/30 10:10:30;;;;;;;;;3.33;3.33;;;;;28.64;32.16;101166.75;4969563;28;45447;-85
2022/07/30 10:13:01;;;;;;;;;4.00;4.00;;;;;28.69;31.56;101167.38;4968623;28;45374;-84
2022/07/30 10:15:29;;;;;;;;;3.67;3.67;;;;;28.58;32.22;101153.41;4970169;28;45696;-84
2022/07/30 10:17:55;;;;;;;;;2.67;2.67;;;;;28.68;31.84;101163.78;4970420;28;47132;-84
2022/07/30 10:20:21;;;;;;;;;4.67;4.67;;;;;28.69;32.89;101157.31;4969461;28;45379;-85
2022/07/30 10:22:47;;;;;;;;;5.67;5.33;;;;;28.71;32.33;101158.13;4986477;28;44759;-84
2022/07/30 10:25:18;;;;;;;;;4.00;4.00;;;;;28.73;32.21;101156.19;4970945;28;45434;-85
2022/07/30 10:27:44;;;;;;;;;4.00;4.00;;;;;28.78;32.40;101153.19;4971023;28;44988;-85
2022/07/30 10:30:10;;;;;;;;;5.00;5.00;;;;;28.82;32.39;101153.91;4970875;28;45401;-85
2022/07/30 10:32:37;;;;;;;;;2.33;2.33;;;;;28.91;32.69;101150.66;4970355;28;45439;-84
2022/07/30 10:35:04;;;;;;;;;4.00;4.00;;;;;29.06;32.77;101151.63;4969244;28;45485;-85
2022/07/30 10:41:00;;;;;;;;;5.00;4.33;;;;;29.21;32.06;101137.09;4970594;28;45430;-85
2022/07/30 10:43:59;;;;;;;;;5.00;4.33;;;;;29.30;32.20;101138.41;4968245;28;45501;-85
2022/07/30 10:46:35;;;;;;;;;4.00;4.00;;;;;29.25;31.82;101126.84;4970278;28;44799;-85
2022/07/30 10:49:27;;;;;;;;;2.33;2.33;;;;;29.30;31.27;101142.03;4971263;28;45209;-85
2022/07/30 10:51:54;;;;;;;;;5.00;5.00;;;;;29.17;31.55;101141.00;4967939;28;44804;-84
2022/07/30 10:54:32;;;;;;;;;4.33;4.33;;;;;29.04;31.83;101145.34;4969685;28;45298;-85
2022/07/30 10:57:12;;;;;;;;;6.00;4.67;;;;;29.04;31.54;101131.66;4970918;28;45520;-85
2022/07/30 11:00:00;;;;;;;;;5.00;5.00;;;;;29.01;32.07;101135.47;4970331;28;48153;-84
2022/07/30 11:02:33;;;;;;;;;3.00;3.00;;;;;28.95;32.14;101140.41;4959344;28;45575;-84
2022/07/30 11:05:17;;;;;;;;;6.00;5.67;;;;;28.90;31.98;101136.09;4969367;28;45436;-85
2022/07/30 11:07:43;;;;;;;;;4.00;4.00;;;;;28.88;32.13;101131.66;4969132;28;45436;-85
2022/07/30 11:10:36;;;;;;;;;5.00;5.00;;;;;28.80;32.60;101129.34;4969710;28;47859;-84
2022/07/30 11:13:06;;;;;;;;;6.67;6.67;;;;;28.83;32.44;101123.69;4970881;28;44812;-86
2022/07/30 11:15:56;;;;;;;;;6.00;6.00;;;;;28.95;32.17;101135.81;4967977;28;45441;-85
2022/07/30 11:18:23;;;;;;;;;6.00;6.00;;;;;28.95;32.37;101129.47;4971613;28;45330;-86
2022/07/30 11:21:16;;;;;;;;;5.67;5.67;;;;;29.01;32.28;101123.63;4968722;28;47148;-86
2022/07/30 11:23:44;;;;;;;;;5.67;5.67;;;;;29.00;32.48;101130.06;4900864;29;44915;-84
2022/07/30 11:26:11;;;;;;;;;7.00;7.00;;;;;28.86;32.67;101109.81;4908244;29;45615;-85
2022/07/30 11:28:48;;;;;;;;;3.33;3.33;;;;;28.86;32.91;101119.91;4910763;29;45533;-85
2022/07/30 11:31:30;;;;;;;;;4.67;4.67;;;;;28.88;32.14;101124.34;4910426;29;47176;-86
2022/07/30 11:34:17;;;;;;;;;4.33;4.33;;;;;28.77;32.40;101114.97;4909992;28;45480;-85
2022/07/30 11:37:13;;;;;;;;;4.67;4.67;;;;;28.73;32.87;101114.25;4895931;29;45003;-85
2022/07/30 11:39:53;;;;;;;;;5.00;5.00;;;;;28.79;32.48;101113.91;4893637;29;45586;-85
2022/07/30 11:42:27;;;;;;;;;0.67;0.00;;;;;28.84;32.51;101108.16;4892916;29;45765;-85
2022/07/30 11:45:12;;;;;;;;;6.00;4.33;;;;;28.98;32.24;101115.59;4876140;29;45452;-85
2022/07/30 11:47:45;;;;;;;;;4.67;4.67;;;;;29.08;31.63;101108.59;4893859;29;45520;-85
2022/07/30 11:50:23;;;;;;;;;6.00;4.00;;;;;29.16;32.39;101103.59;4894486;29;45482;-85
2022/07/30 11:53:08;;;;;;;;;5.00;5.00;;;;;29.14;31.79;101088.22;4892907;29;47845;-85
2022/07/30 11:55:42;;;;;;;;;5.00;5.00;;;;;29.06;32.29;101064.00;4894176;29;44888;-84
2022/07/30 11:58:24;;;;;;;;;7.00;7.00;;;;;29.32;31.71;101096.25;4910717;29;45519;-85